CheckWX is a tool to help pilots better visualize weather data.  It is not intended as a substitute for an official pre-flight weather briefing.

06:46:39 UTC

KRSL TAF
Russell Municipal Airport
Russell, Kansas, USA
KRSL 160520Z 1606/1706 04006KT P6SM SCT250 FM160900 VRB04KT P6SM SCT250 FM161400 35007KT P6SM FEW090 FM161700 03010KT P6SM SKC FM162000 04005KT P6SM SCT250

Jun-16@
06:00 UTC

Jun-16 @ 06:00 UTC

Jun-16@
09:00 UTC

Jun-16 @ 09:00 UTC

KRSL 160520Z 1606/1706 04006KT P6SM SCT250
Wind
  • 040° at 6 KTS
Cloud Levels
  • Scattered at 25,000' AGL

Jun-16@
09:00 UTC

Jun-16 @ 09:00 UTC

Jun-16@
14:00 UTC

Jun-16 @ 14:00 UTC

FM160900 VRB04KT P6SM SCT250

From

From Standard forecast or significant change

Wind
  • Variable at 4 KTS
Cloud Levels
  • Scattered at 25,000' AGL

Jun-16@
14:00 UTC

Jun-16 @ 14:00 UTC

Jun-16@
17:00 UTC

Jun-16 @ 17:00 UTC

FM161400 35007KT P6SM FEW090

From

From Standard forecast or significant change

Wind
  • 350° at 7 KTS
Cloud Levels
  • Few at 9,000' AGL

Jun-16@
17:00 UTC

Jun-16 @ 17:00 UTC

Jun-16@
20:00 UTC

Jun-16 @ 20:00 UTC

FM161700 03010KT P6SM SKC

From

From Standard forecast or significant change

Wind
  • 030° at 10 KTS
Cloud Levels
  • Clear skies

Jun-16@
20:00 UTC

Jun-16 @ 20:00 UTC

Jun-17@
06:00 UTC

Jun-17 @ 06:00 UTC

FM162000 04005KT P6SM SCT250

From

From Standard forecast or significant change

Wind
  • 040° at 5 KTS
Cloud Levels
  • Scattered at 25,000' AGL